createdAt,value
2018-11-20T00:01:55.958Z,3.08
2018-11-20T00:05:27.950Z,4.47
2018-11-20T00:08:48.359Z,12.45
2018-11-20T00:12:03.531Z,3.25
2018-11-20T00:15:30.705Z,6.00
2018-11-20T00:19:09.292Z,4.70
2018-11-20T00:22:28.168Z,3.60
2018-11-20T00:26:06.588Z,3.70
2018-11-20T00:29:33.151Z,3.10
2018-11-20T00:32:56.772Z,3.47
2018-11-20T00:36:18.974Z,2.85
2018-11-20T00:39:40.903Z,4.07
2018-11-20T00:43:07.246Z,4.07
2018-11-20T00:46:45.810Z,3.17
2018-11-20T00:50:07.931Z,3.43
2018-11-20T00:53:46.758Z,3.67
2018-11-20T00:57:28.374Z,4.03
2018-11-20T01:00:57.678Z,4.53
2018-11-20T01:04:21.313Z,3.03
2018-11-20T01:07:43.951Z,3.70
2018-11-20T01:11:19.662Z,4.87
2018-11-20T01:14:43.182Z,3.40
2018-11-20T01:18:15.862Z,4.00
2018-11-20T01:21:38.237Z,2.92
2018-11-20T01:25:17.034Z,4.20
2018-11-20T01:28:37.154Z,6.00
2018-11-20T01:32:03.212Z,3.70
2018-11-20T01:35:21.509Z,4.43
2018-11-20T01:38:48.243Z,3.67
2018-11-20T01:41:59.575Z,3.87
2018-11-20T01:45:31.981Z,3.92
2018-11-20T01:48:54.353Z,7.63
2018-11-20T01:52:05.641Z,3.33
2018-11-20T01:55:29.158Z,4.20
2018-11-20T01:58:43.586Z,2.93
2018-11-20T02:02:13.370Z,3.83
2018-11-20T02:05:42.938Z,3.70
2018-11-20T02:09:17.126Z,3.90
2018-11-20T02:12:49.356Z,4.63
2018-11-20T02:16:13.194Z,4.37
2018-11-20T02:19:35.709Z,3.50
2018-11-20T02:23:02.038Z,3.57
2018-11-20T02:26:37.594Z,3.20
2018-11-20T02:33:26.159Z,4.63
2018-11-20T02:36:48.676Z,3.87
2018-11-20T02:40:07.312Z,3.77
2018-11-20T02:43:29.565Z,3.42
2018-11-20T02:46:59.497Z,3.67
2018-11-20T02:50:14.027Z,5.63
2018-11-20T02:53:40.270Z,3.70
2018-11-20T02:57:02.444Z,3.70
2018-11-20T03:00:18.610Z,3.37
2018-11-20T03:03:41.276Z,4.07
2018-11-20T03:06:57.859Z,4.07
2018-11-20T03:10:27.559Z,3.53
2018-11-20T03:13:56.894Z,4.13
2018-11-20T03:17:26.011Z,4.00
2018-11-20T03:20:48.381Z,4.00
2018-11-20T03:24:30.255Z,3.70
2018-11-20T03:27:59.871Z,3.50
2018-11-20T03:31:26.576Z,4.73
2018-11-20T03:34:55.994Z,4.03
2018-11-20T03:38:28.306Z,4.37
2018-11-20T03:42:09.933Z,3.83
2018-11-20T03:45:39.404Z,5.13
2018-11-20T03:49:02.067Z,3.30
2018-11-20T03:52:35.962Z,3.80
2018-11-20T03:56:11.559Z,4.93
2018-11-20T03:59:50.174Z,4.10
2018-11-20T04:03:10.645Z,3.37
2018-11-20T04:06:34.252Z,3.67
2018-11-20T04:10:06.851Z,3.90
2018-11-20T04:13:30.683Z,4.30
2018-11-20T04:16:57.218Z,5.63
2018-11-20T04:20:35.909Z,3.77
2018-11-20T04:24:04.035Z,3.80
2018-11-20T04:27:46.022Z,3.70
2018-11-20T04:31:36.025Z,3.40
2018-11-20T04:34:48.363Z,3.67
2018-11-20T04:38:14.367Z,3.87
2018-11-20T04:41:37.863Z,5.33
2018-11-20T04:44:58.232Z,4.00
2018-11-20T04:48:16.074Z,4.73
2018-11-20T04:51:33.670Z,3.43
2018-11-20T04:55:06.171Z,4.37
2018-11-20T04:58:35.746Z,4.40
2018-11-20T05:02:01.799Z,4.50
2018-11-20T05:05:34.716Z,3.93
2018-11-20T05:08:58.367Z,3.87
2018-11-20T05:12:20.664Z,4.10
2018-11-20T05:15:50.274Z,4.00
2018-11-20T05:19:12.715Z,3.27
2018-11-20T05:22:34.645Z,3.93
2018-11-20T05:26:16.366Z,3.63
2018-11-20T05:29:39.912Z,6.13
2018-11-20T05:33:00.102Z,3.70
2018-11-20T05:36:38.998Z,7.63
2018-11-20T05:39:59.881Z,3.33
2018-11-20T05:43:35.320Z,3.20
2018-11-20T05:47:07.901Z,2.83
2018-11-20T05:50:30.039Z,3.27
2018-11-20T05:53:52.391Z,4.17
2018-11-20T05:57:14.517Z,3.10
2018-11-20T06:00:56.172Z,3.13
2018-11-20T06:04:19.027Z,4.23
2018-11-20T06:07:30.542Z,3.27
2018-11-20T06:10:55.066Z,4.17
2018-11-20T06:14:17.300Z,3.67
2018-11-20T06:17:52.841Z,2.67
2018-11-20T06:21:14.958Z,4.30
2018-11-20T06:24:41.547Z,3.30
2018-11-20T06:28:11.054Z,3.58
2018-11-20T06:31:46.505Z,2.80
2018-11-20T06:35:10.081Z,3.40
2018-11-20T06:38:32.257Z,3.17
2018-11-20T06:41:54.527Z,3.20
2018-11-20T06:45:25.477Z,3.33
2018-11-20T06:48:47.817Z,3.27
2018-11-20T06:52:10.074Z,2.72
2018-11-20T06:55:38.790Z,2.70
2018-11-20T06:59:05.485Z,3.03
2018-11-20T07:02:47.070Z,3.10
2018-11-20T07:06:22.870Z,3.08
2018-11-20T07:09:51.073Z,3.50
2018-11-20T07:13:23.626Z,2.97
2018-11-20T07:16:52.122Z,2.97
2018-11-20T07:20:14.372Z,2.90
2018-11-20T07:23:36.538Z,2.58
2018-11-20T07:26:58.943Z,3.27
2018-11-20T07:30:22.487Z,3.10
2018-11-20T07:33:44.749Z,3.20
2018-11-20T07:37:17.309Z,3.57
2018-11-20T07:40:39.698Z,2.97
2018-11-20T07:44:03.262Z,3.27
2018-11-20T07:47:34.027Z,5.20
2018-11-20T07:51:06.590Z,3.60
2018-11-20T07:54:36.338Z,2.85
2018-11-20T07:58:14.778Z,3.13
2018-11-20T08:01:38.352Z,3.65
2018-11-20T08:05:01.904Z,3.27
2018-11-20T08:08:15.775Z,3.00
2018-11-20T08:11:44.911Z,3.20
2018-11-20T08:15:07.269Z,3.90
2018-11-20T08:18:46.190Z,2.52
2018-11-20T08:22:25.003Z,13.93
2018-11-20T08:25:56.412Z,9.25
2018-11-20T08:29:18.584Z,7.80
2018-11-20T08:32:35.769Z,9.57
2018-11-20T08:35:58.245Z,10.05
2018-11-20T08:39:21.897Z,10.47
2018-11-20T08:42:44.337Z,8.90
2018-11-20T08:46:07.865Z,10.90
2018-11-20T08:49:29.885Z,9.20
2018-11-20T08:52:55.478Z,8.38
2018-11-20T08:56:17.501Z,9.13
2018-11-20T08:59:39.470Z,7.43
2018-11-20T09:03:18.232Z,6.87
2018-11-20T09:06:47.510Z,6.90
2018-11-20T09:10:11.157Z,8.33
2018-11-20T09:13:33.510Z,8.63
2018-11-20T09:16:55.936Z,8.85
2018-11-20T09:20:29.067Z,7.65
2018-11-20T09:24:01.648Z,6.15
2018-11-20T09:27:35.943Z,6.33
2018-11-20T09:31:05.114Z,9.03
2018-11-20T09:34:27.691Z,7.80
2018-11-20T09:37:40.904Z,8.43
2018-11-20T09:41:17.555Z,6.25
2018-11-20T09:44:53.494Z,5.67
2018-11-20T09:48:20.202Z,7.50
2018-11-20T09:51:46.389Z,7.92
2018-11-20T09:55:09.982Z,9.83
2018-11-20T09:58:48.609Z,5.63
2018-11-20T10:02:14.756Z,6.77
2018-11-20T10:05:44.081Z,7.15
2018-11-20T10:09:05.103Z,8.53
2018-11-20T10:12:37.479Z,8.40
2018-11-20T10:15:59.471Z,9.80
2018-11-20T10:19:34.366Z,7.33
2018-11-20T10:22:48.286Z,8.88
2018-11-20T10:26:03.511Z,9.63
2018-11-20T10:29:47.646Z,10.75
2018-11-20T10:34:06.923Z,7.28
2018-11-20T10:37:28.245Z,9.88
2018-11-20T10:41:02.987Z,8.65
2018-11-20T10:44:28.333Z,8.18
2018-11-20T10:48:02.031Z,8.68
2018-11-20T10:55:05.275Z,13.55
2018-11-20T10:58:43.113Z,17.12
2018-11-20T11:02:04.472Z,21.87
2018-11-20T11:05:43.395Z,15.60
2018-11-20T11:09:06.143Z,15.05
2018-11-20T11:12:27.852Z,13.57
2018-11-20T11:15:44.715Z,20.12
2018-11-20T11:19:25.674Z,6.80
2018-11-20T11:22:47.223Z,15.55
2018-11-20T11:26:16.200Z,9.30
2018-11-20T11:29:53.986Z,12.45
2018-11-20T11:33:15.176Z,12.55
2018-11-20T11:36:36.616Z,8.10
2018-11-20T11:39:58.277Z,9.83
2018-11-20T11:43:28.282Z,13.32
2018-11-20T11:47:03.053Z,9.48
2018-11-20T11:50:25.015Z,11.40
2018-11-20T11:53:34.936Z,8.28
2018-11-20T11:56:56.769Z,8.63
2018-11-20T12:00:34.706Z,8.10
2018-11-20T12:03:51.492Z,10.68
2018-11-20T12:07:12.649Z,6.50
2018-11-20T12:10:36.406Z,14.83
2018-11-20T12:13:56.865Z,6.92
2018-11-20T12:17:25.543Z,7.75
2018-11-20T12:20:53.815Z,8.58
2018-11-20T12:24:19.694Z,9.75
2018-11-20T12:27:51.340Z,6.33
2018-11-20T12:31:16.868Z,8.95
2018-11-20T12:34:35.551Z,9.75
2018-11-20T12:38:03.303Z,9.35
2018-11-20T12:41:28.620Z,10.88
2018-11-20T12:44:49.967Z,8.40
2018-11-20T12:48:11.247Z,7.47
2018-11-20T12:51:32.820Z,7.65
2018-11-20T12:54:53.990Z,9.60
2018-11-20T12:58:15.752Z,6.92
2018-11-20T13:01:24.831Z,9.23
2018-11-20T13:04:50.379Z,10.50
2018-11-20T13:08:12.044Z,6.05
2018-11-20T13:11:43.722Z,10.18
2018-11-20T13:15:02.767Z,7.30
2018-11-20T13:18:25.487Z,7.50
2018-11-20T13:21:46.500Z,10.72
2018-11-20T13:25:17.765Z,10.08
2018-11-20T13:28:46.583Z,9.58
2018-11-20T13:32:08.103Z,6.67
2018-11-20T13:35:30.935Z,4.78
2018-11-20T13:38:52.248Z,10.10
2018-11-20T13:42:28.583Z,5.85
2018-11-20T13:45:53.823Z,6.12
2018-11-20T13:49:15.031Z,4.72
2018-11-20T13:52:40.268Z,6.78
2018-11-20T13:56:01.595Z,5.78
2018-11-20T13:59:22.720Z,6.60
2018-11-20T14:02:32.695Z,8.75
2018-11-20T14:05:58.479Z,5.12
2018-11-20T14:09:33.100Z,8.65
2018-11-20T14:12:49.728Z,7.03
2018-11-20T14:16:11.243Z,4.78
2018-11-20T14:19:36.348Z,5.00
2018-11-20T14:23:05.659Z,7.28
2018-11-20T14:26:26.936Z,6.90
2018-11-20T14:29:44.507Z,6.47
2018-11-20T14:33:16.186Z,4.40
2018-11-20T14:36:54.561Z,4.92
2018-11-20T14:40:16.109Z,6.15
2018-11-20T14:43:33.968Z,6.37
2018-11-20T14:47:05.776Z,4.72
2018-11-20T14:50:44.812Z,4.25
2018-11-20T14:54:26.509Z,4.60
2018-11-20T14:57:55.663Z,6.45
2018-11-20T15:01:17.903Z,8.10
2018-11-20T15:04:40.587Z,3.80
2018-11-20T15:08:01.853Z,4.17
2018-11-20T15:11:32.821Z,6.50
2018-11-20T15:14:54.527Z,5.42
2018-11-20T15:18:15.993Z,4.78
2018-11-20T15:21:56.721Z,4.17
2018-11-20T15:25:31.411Z,5.28
2018-11-20T15:28:42.972Z,3.47
2018-11-20T15:32:04.703Z,4.87
2018-11-20T15:35:39.167Z,4.05
2018-11-20T15:39:00.512Z,4.20
2018-11-20T15:42:22.201Z,4.10
2018-11-20T15:45:51.062Z,4.20
2018-11-20T15:49:13.773Z,4.70
2018-11-20T15:52:36.521Z,4.30
2018-11-20T15:56:14.468Z,4.15
2018-11-20T15:59:44.035Z,4.17
2018-11-20T16:03:09.633Z,5.40
2018-11-20T16:06:31.260Z,3.17
2018-11-20T16:10:02.641Z,4.90
2018-11-20T16:13:19.364Z,4.25
2018-11-20T16:16:40.576Z,5.58
2018-11-20T16:20:01.752Z,4.80
2018-11-20T16:23:23.144Z,4.70
2018-11-20T16:26:44.432Z,6.83
2018-11-20T16:30:06.223Z,4.15
2018-11-20T16:33:24.471Z,3.27
2018-11-20T16:36:47.732Z,3.87
2018-11-20T16:40:13.450Z,5.90
2018-11-20T16:43:39.163Z,6.03
2018-11-20T16:47:08.198Z,3.67
2018-11-20T16:50:29.746Z,3.62
2018-11-20T16:54:07.448Z,4.75
2018-11-20T16:57:30.522Z,3.83
2018-11-20T17:01:01.732Z,4.72
2018-11-20T17:04:24.523Z,6.28
2018-11-20T17:07:46.072Z,3.92
2018-11-20T17:11:23.956Z,3.60
2018-11-20T17:14:33.993Z,4.55
2018-11-20T17:17:52.879Z,3.22
2018-11-20T17:21:13.812Z,2.98
2018-11-20T17:24:54.732Z,3.75
2018-11-20T17:28:25.877Z,4.10
2018-11-20T17:31:41.051Z,5.12
2018-11-20T17:35:06.370Z,3.70
2018-11-20T17:38:32.007Z,3.22
2018-11-20T17:42:00.689Z,3.60
2018-11-20T17:45:29.081Z,3.42
2018-11-20T17:48:54.314Z,5.25
2018-11-20T17:52:15.730Z,4.17
2018-11-20T17:55:41.259Z,4.20
2018-11-20T17:58:58.111Z,9.05
2018-11-20T18:02:19.667Z,8.20
2018-11-20T18:05:47.724Z,5.33
2018-11-20T18:09:01.248Z,5.90
2018-11-20T18:12:32.911Z,7.67
2018-11-20T18:16:07.645Z,8.70
2018-11-20T18:19:39.323Z,6.72
2018-11-20T18:23:20.199Z,5.30
2018-11-20T18:26:42.889Z,4.65
2018-11-20T18:30:02.429Z,5.03
2018-11-20T18:33:37.606Z,6.65
2018-11-20T18:36:57.695Z,4.35
2018-11-20T18:40:18.865Z,5.12
2018-11-20T18:43:56.951Z,4.85
2018-11-20T18:47:25.752Z,6.15
2018-11-20T18:50:51.108Z,4.58
2018-11-20T18:54:03.921Z,6.25
2018-11-20T18:57:25.555Z,6.67
2018-11-20T19:00:57.567Z,5.97
2018-11-20T19:04:20.478Z,6.58
2018-11-20T19:07:49.314Z,5.70
2018-11-20T19:11:27.179Z,4.62
2018-11-20T19:14:54.235Z,6.05
2018-11-20T19:18:19.773Z,4.42
2018-11-20T19:21:41.388Z,4.03
2018-11-20T19:25:16.122Z,4.70
2018-11-20T19:28:44.707Z,4.58
2018-11-20T19:32:26.276Z,4.33
2018-11-20T19:35:56.842Z,4.15
2018-11-20T19:39:18.324Z,5.17
2018-11-20T19:42:46.964Z,5.58
2018-11-20T19:46:08.240Z,4.70
2018-11-20T19:49:31.066Z,4.70
2018-11-20T19:52:56.640Z,5.35
2018-11-20T19:56:28.479Z,4.40
2018-11-20T19:59:49.625Z,4.53
2018-11-20T20:03:24.726Z,4.95
2018-11-20T20:07:02.598Z,5.20
2018-11-20T20:10:38.971Z,4.37
2018-11-20T20:14:14.031Z,4.42
2018-11-20T20:17:36.165Z,5.85
2018-11-20T20:20:58.848Z,5.10
2018-11-20T20:24:27.168Z,4.75
2018-11-20T20:27:48.883Z,5.55
2018-11-20T20:31:11.715Z,4.70
2018-11-20T20:34:43.456Z,4.25
2018-11-20T20:38:08.714Z,4.17
2018-11-20T20:41:29.744Z,5.22
2018-11-20T20:44:50.928Z,4.25
2018-11-20T20:48:13.650Z,5.05
2018-11-20T20:51:35.025Z,4.25
2018-11-20T20:55:04.661Z,4.58
2018-11-20T20:58:27.339Z,5.35
2018-11-20T21:01:52.688Z,5.03
2018-11-20T21:05:14.115Z,5.28
2018-11-20T21:08:35.124Z,4.70
2018-11-20T21:12:06.868Z,5.80
2018-11-20T21:15:43.398Z,7.05
2018-11-20T21:19:08.940Z,10.03
2018-11-20T21:22:50.296Z,6.95
2018-11-20T21:26:25.042Z,10.38
2018-11-20T21:29:46.582Z,10.53
2018-11-20T21:33:09.324Z,6.22
2018-11-20T21:36:30.471Z,5.95
2018-11-20T21:39:51.907Z,7.53
2018-11-20T21:43:13.524Z,8.45
2018-11-20T21:46:54.929Z,5.47
2018-11-20T21:50:29.992Z,5.75
2018-11-20T21:53:57.372Z,7.58
2018-11-20T21:57:18.737Z,6.80
2018-11-20T22:00:55.912Z,7.12
2018-11-20T22:04:24.692Z,7.55
2018-11-20T22:07:47.812Z,5.05
2018-11-20T22:11:27.089Z,7.87
2018-11-20T22:15:02.273Z,5.87
2018-11-20T22:18:23.932Z,6.15
2018-11-20T22:21:46.763Z,5.87
2018-11-20T22:25:09.775Z,6.07
2018-11-20T22:28:41.147Z,8.13
2018-11-20T22:32:03.892Z,7.12
2018-11-20T22:35:25.421Z,7.12
2018-11-20T22:38:48.259Z,7.25
2018-11-20T22:42:11.057Z,7.20
2018-11-20T22:45:36.435Z,8.03
2018-11-20T22:48:58.344Z,8.08
2018-11-20T22:52:30.450Z,8.80
2018-11-20T22:55:53.199Z,9.60
2018-11-20T22:59:24.580Z,5.85
2018-11-20T23:02:45.595Z,6.70
2018-11-20T23:06:19.031Z,7.95
2018-11-20T23:09:22.756Z,5.05
2018-11-20T23:12:26.428Z,8.33
2018-11-20T23:15:30.015Z,7.05
2018-11-20T23:18:33.678Z,7.33
2018-11-20T23:21:37.303Z,7.40
2018-11-20T23:24:40.878Z,7.47
2018-11-20T23:27:44.594Z,7.57
2018-11-20T23:30:48.296Z,7.00
2018-11-20T23:33:51.860Z,8.77
2018-11-20T23:36:55.428Z,7.23
2018-11-20T23:39:59.058Z,7.40
2018-11-20T23:43:02.636Z,6.28
2018-11-20T23:46:06.448Z,7.17
2018-11-20T23:49:15.214Z,8.90
2018-11-20T23:52:13.858Z,7.80
2018-11-20T23:55:17.535Z,8.33
2018-11-20T23:58:21.185Z,7.53
